KLRO

Mt Pleasant Regional-Faison Field Airport

Mount Pleasant, South Carolina, USA
METAR KLRO 181615Z AUTO 23005KT 10SM FEW044 SCT080 19/16 A3020 RMK AO2
Observed Flight Rules
Dec-18 @ 16:15 UTC (13 minutes ago) Visual Flight Rules
Wind Visibility Clouds
230° at 5 knots 10 miles
  • Few at 4,400' AGL
  • Scattered at 8,000' AGL
Temperatures Readings
Current 19°C / 66°F
Dewpoint 16°C / 61°F
Humidity 83%
Altimeter 30.2" Hg
Pressure 1023 hPa
Elevation 4
METAR KLRO 181615Z AUTO 23005KT 10SM FEW044 SCT080 19/16 A3020 RMK AO2
Observed Flight Rules
Dec-18 @ 16:15 UTC
(13 minutes ago)
VFR
Wind Visibility
230° at 5 knots 10 miles
Clouds
  • Few at 4,400' AGL
  • Scattered at 8,000' AGL
Temperature Dewpoint
19°C / 66°F 16°C / 61°F
Humidity Altimeter Pressure
83% 30.2" Hg 1023 hPa